sensor_id;sensor_type;location;lat;lon;timestamp;pressure;altitude;pressure_sealevel;temperature;humidity
79591;BME280;69070;51.598;-3.776;2023-04-07T00:02:08;102058.77;;;-1.13;82.34
79591;BME280;69070;51.598;-3.776;2023-04-07T00:04:34;102058.60;;;-1.52;83.01
79591;BME280;69070;51.598;-3.776;2023-04-07T00:06:59;102058.32;;;-1.33;83.63
79591;BME280;69070;51.598;-3.776;2023-04-07T00:09:24;102055.02;;;-1.77;84.37
79591;BME280;69070;51.598;-3.776;2023-04-07T00:11:49;102058.10;;;-1.59;84.18
79591;BME280;69070;51.598;-3.776;2023-04-07T00:14:15;102059.41;;;-1.80;83.50
79591;BME280;69070;51.598;-3.776;2023-04-07T00:16:40;102056.85;;;-1.86;83.29
79591;BME280;69070;51.598;-3.776;2023-04-07T00:19:06;102053.47;;;-1.35;82.60
79591;BME280;69070;51.598;-3.776;2023-04-07T00:21:31;102053.79;;;-1.52;83.76
79591;BME280;69070;51.598;-3.776;2023-04-07T00:23:57;102053.30;;;-1.82;83.37
79591;BME280;69070;51.598;-3.776;2023-04-07T00:26:21;102052.70;;;-1.88;83.70
79591;BME280;69070;51.598;-3.776;2023-04-07T00:28:47;102054.05;;;-1.91;84.83
79591;BME280;69070;51.598;-3.776;2023-04-07T00:31:12;102055.85;;;-1.65;84.50
79591;BME280;69070;51.598;-3.776;2023-04-07T00:33:37;102053.12;;;-2.06;83.70
79591;BME280;69070;51.598;-3.776;2023-04-07T00:36:03;102055.42;;;-1.77;84.00
79591;BME280;69070;51.598;-3.776;2023-04-07T00:38:28;102056.06;;;-2.00;84.34
79591;BME280;69070;51.598;-3.776;2023-04-07T00:40:56;102055.04;;;-1.70;83.45
79591;BME280;69070;51.598;-3.776;2023-04-07T00:43:19;102054.38;;;-1.60;83.56
79591;BME280;69070;51.598;-3.776;2023-04-07T00:45:44;102053.78;;;-1.79;83.38
79591;BME280;69070;51.598;-3.776;2023-04-07T00:48:09;102052.58;;;-1.78;83.29
79591;BME280;69070;51.598;-3.776;2023-04-07T00:50:35;102049.57;;;-1.65;83.49
79591;BME280;69070;51.598;-3.776;2023-04-07T00:53:00;102046.91;;;-1.88;83.07
79591;BME280;69070;51.598;-3.776;2023-04-07T00:55:25;102049.15;;;-1.64;82.64
79591;BME280;69070;51.598;-3.776;2023-04-07T00:57:51;102048.00;;;-1.92;82.48
79591;BME280;69070;51.598;-3.776;2023-04-07T01:00:16;102050.72;;;-1.88;83.16
79591;BME280;69070;51.598;-3.776;2023-04-07T01:02:46;102048.87;;;-1.99;82.75
79591;BME280;69070;51.598;-3.776;2023-04-07T01:05:13;102047.85;;;-2.16;83.98
79591;BME280;69070;51.598;-3.776;2023-04-07T01:07:38;102040.23;;;-1.65;83.22
79591;BME280;69070;51.598;-3.776;2023-04-07T01:10:02;102037.99;;;-2.11;83.15
79591;BME280;69070;51.598;-3.776;2023-04-07T01:12:31;102038.24;;;-1.89;83.95
79591;BME280;69070;51.598;-3.776;2023-04-07T01:14:53;102037.37;;;-1.88;84.01
79591;BME280;69070;51.598;-3.776;2023-04-07T01:17:14;102035.39;;;-2.23;84.16
79591;BME280;69070;51.598;-3.776;2023-04-07T01:19:43;102035.60;;;-2.17;82.62
79591;BME280;69070;51.598;-3.776;2023-04-07T01:22:08;102032.75;;;-1.67;81.65
79591;BME280;69070;51.598;-3.776;2023-04-07T01:24:44;102030.78;;;-2.10;82.24
79591;BME280;69070;51.598;-3.776;2023-04-07T01:27:08;102031.16;;;-2.06;82.44
79591;BME280;69070;51.598;-3.776;2023-04-07T01:29:29;102024.60;;;-1.71;82.74
79591;BME280;69070;51.598;-3.776;2023-04-07T01:31:48;102023.73;;;-2.18;82.85
79591;BME280;69070;51.598;-3.776;2023-04-07T01:34:13;102022.46;;;-2.28;83.01
79591;BME280;69070;51.598;-3.776;2023-04-07T01:36:37;102023.70;;;-2.33;84.60
79591;BME280;69070;51.598;-3.776;2023-04-07T01:39:03;102028.95;;;-2.13;83.44
79591;BME280;69070;51.598;-3.776;2023-04-07T01:41:29;102028.75;;;-1.78;83.39
79591;BME280;69070;51.598;-3.776;2023-04-07T01:43:54;102029.21;;;-2.07;83.70
79591;BME280;69070;51.598;-3.776;2023-04-07T01:46:19;102030.88;;;-2.03;82.69
79591;BME280;69070;51.598;-3.776;2023-04-07T01:48:45;102033.98;;;-1.90;82.96
79591;BME280;69070;51.598;-3.776;2023-04-07T01:51:10;102036.46;;;-2.08;82.43
79591;BME280;69070;51.598;-3.776;2023-04-07T01:53:35;102036.15;;;-1.76;83.18
79591;BME280;69070;51.598;-3.776;2023-04-07T01:56:01;102035.13;;;-2.26;84.50
79591;BME280;69070;51.598;-3.776;2023-04-07T01:58:26;102034.08;;;-2.31;85.18
79591;BME280;69070;51.598;-3.776;2023-04-07T02:00:51;102036.09;;;-2.48;85.85
79591;BME280;69070;51.598;-3.776;2023-04-07T02:03:19;102038.22;;;-2.48;85.88
79591;BME280;69070;51.598;-3.776;2023-04-07T02:05:42;102040.92;;;-2.32;85.92
79591;BME280;69070;51.598;-3.776;2023-04-07T02:08:09;102045.66;;;-2.89;85.12
79591;BME280;69070;51.598;-3.776;2023-04-07T02:10:36;102045.23;;;-2.79;85.27
79591;BME280;69070;51.598;-3.776;2023-04-07T02:12:59;102043.07;;;-2.48;85.37
79591;BME280;69070;51.598;-3.776;2023-04-07T02:15:24;102045.68;;;-2.62;84.29
79591;BME280;69070;51.598;-3.776;2023-04-07T02:17:52;102042.35;;;-2.64;83.06
79591;BME280;69070;51.598;-3.776;2023-04-07T02:20:15;102044.06;;;-2.56;83.50
79591;BME280;69070;51.598;-3.776;2023-04-07T02:22:41;102040.80;;;-2.27;82.84
79591;BME280;69070;51.598;-3.776;2023-04-07T02:27:31;102038.51;;;-2.51;83.66
79591;BME280;69070;51.598;-3.776;2023-04-07T02:29:56;102041.87;;;-2.36;83.61
79591;BME280;69070;51.598;-3.776;2023-04-07T02:32:22;102040.76;;;-2.45;83.94
79591;BME280;69070;51.598;-3.776;2023-04-07T02:34:47;102041.03;;;-2.48;83.64
79591;BME280;69070;51.598;-3.776;2023-04-07T02:37:13;102045.13;;;-2.91;82.86
79591;BME280;69070;51.598;-3.776;2023-04-07T02:39:38;102043.93;;;-2.43;83.01
79591;BME280;69070;51.598;-3.776;2023-04-07T02:42:04;102046.42;;;-1.84;80.50
79591;BME280;69070;51.598;-3.776;2023-04-07T02:44:29;102045.97;;;-1.09;77.03
79591;BME280;69070;51.598;-3.776;2023-04-07T02:46:54;102045.83;;;-1.69;75.24
79591;BME280;69070;51.598;-3.776;2023-04-07T02:49:20;102053.85;;;-2.69;81.04
79591;BME280;69070;51.598;-3.776;2023-04-07T02:51:45;102053.81;;;-2.43;82.68
79591;BME280;69070;51.598;-3.776;2023-04-07T02:54:11;102052.35;;;-2.60;83.34
79591;BME280;69070;51.598;-3.776;2023-04-07T02:56:36;102050.86;;;-2.35;83.06
79591;BME280;69070;51.598;-3.776;2023-04-07T02:59:01;102048.92;;;-2.57;85.08
79591;BME280;69070;51.598;-3.776;2023-04-07T03:01:27;102053.32;;;-3.10;83.35
79591;BME280;69070;51.598;-3.776;2023-04-07T03:03:52;102052.04;;;-3.02;85.54
79591;BME280;69070;51.598;-3.776;2023-04-07T03:06:18;102045.41;;;-2.66;84.45
79591;BME280;69070;51.598;-3.776;2023-04-07T03:08:43;102049.35;;;-2.83;85.25
79591;BME280;69070;51.598;-3.776;2023-04-07T03:11:09;102048.82;;;-2.73;83.53
79591;BME280;69070;51.598;-3.776;2023-04-07T03:13:34;102045.13;;;-2.63;85.33
79591;BME280;69070;51.598;-3.776;2023-04-07T03:15:59;102044.67;;;-2.90;85.88
79591;BME280;69070;51.598;-3.776;2023-04-07T03:18:25;102046.57;;;-3.03;86.11
79591;BME280;69070;51.598;-3.776;2023-04-07T03:20:50;102045.35;;;-2.95;86.12
79591;BME280;69070;51.598;-3.776;2023-04-07T03:23:16;102041.24;;;-3.06;87.44
79591;BME280;69070;51.598;-3.776;2023-04-07T03:25:43;102047.64;;;-3.04;84.59
79591;BME280;69070;51.598;-3.776;2023-04-07T03:28:07;102049.02;;;-3.10;84.20
79591;BME280;69070;51.598;-3.776;2023-04-07T03:30:33;102053.53;;;-2.66;83.04
79591;BME280;69070;51.598;-3.776;2023-04-07T03:32:58;102051.31;;;-2.95;83.79
79591;BME280;69070;51.598;-3.776;2023-04-07T03:35:23;102048.35;;;-2.85;83.61
79591;BME280;69070;51.598;-3.776;2023-04-07T03:37:49;102045.30;;;-2.81;83.47
79591;BME280;69070;51.598;-3.776;2023-04-07T03:40:14;102047.79;;;-2.87;83.21
79591;BME280;69070;51.598;-3.776;2023-04-07T03:42:39;102046.77;;;-3.15;84.12
79591;BME280;69070;51.598;-3.776;2023-04-07T03:45:06;102046.16;;;-2.70;84.32
79591;BME280;69070;51.598;-3.776;2023-04-07T03:47:30;102044.20;;;-2.85;83.13
79591;BME280;69070;51.598;-3.776;2023-04-07T03:49:56;102039.51;;;-2.48;80.81
79591;BME280;69070;51.598;-3.776;2023-04-07T03:52:21;102038.55;;;-2.05;77.86
79591;BME280;69070;51.598;-3.776;2023-04-07T03:54:47;102043.77;;;-1.66;77.36
79591;BME280;69070;51.598;-3.776;2023-04-07T03:57:12;102047.10;;;-1.61;77.42
79591;BME280;69070;51.598;-3.776;2023-04-07T03:59:38;102047.56;;;-1.83;77.78
79591;BME280;69070;51.598;-3.776;2023-04-07T04:02:03;102048.23;;;-1.46;76.64
79591;BME280;69070;51.598;-3.776;2023-04-07T04:04:28;102049.82;;;-1.98;75.83
79591;BME280;69070;51.598;-3.776;2023-04-07T04:06:54;102054.63;;;-2.28;79.39
79591;BME280;69070;51.598;-3.776;2023-04-07T04:09:19;102054.24;;;-2.69;81.07
79591;BME280;69070;51.598;-3.776;2023-04-07T04:11:45;102054.43;;;-2.81;81.86
79591;BME280;69070;51.598;-3.776;2023-04-07T04:14:10;102054.28;;;-2.52;82.72
79591;BME280;69070;51.598;-3.776;2023-04-07T04:16:36;102051.63;;;-2.65;81.83
79591;BME280;69070;51.598;-3.776;2023-04-07T04:19:01;102050.53;;;-2.64;82.18
79591;BME280;69070;51.598;-3.776;2023-04-07T04:21:27;102049.14;;;-2.48;81.60
79591;BME280;69070;51.598;-3.776;2023-04-07T04:23:52;102048.47;;;-2.19;80.04
79591;BME280;69070;51.598;-3.776;2023-04-07T04:26:18;102048.86;;;-2.52;80.54
79591;BME280;69070;51.598;-3.776;2023-04-07T04:28:43;102047.29;;;-2.01;78.66
79591;BME280;69070;51.598;-3.776;2023-04-07T04:31:08;102051.19;;;-2.53;79.56
79591;BME280;69070;51.598;-3.776;2023-04-07T04:33:34;102049.35;;;-2.82;81.85
79591;BME280;69070;51.598;-3.776;2023-04-07T04:35:59;102045.53;;;-2.72;83.89
79591;BME280;69070;51.598;-3.776;2023-04-07T04:38:25;102045.76;;;-2.75;84.81
79591;BME280;69070;51.598;-3.776;2023-04-07T04:40:50;102046.92;;;-2.93;84.65
79591;BME280;69070;51.598;-3.776;2023-04-07T04:43:16;102044.49;;;-2.56;83.63
79591;BME280;69070;51.598;-3.776;2023-04-07T04:45:41;102047.12;;;-2.57;83.48
79591;BME280;69070;51.598;-3.776;2023-04-07T04:48:07;102046.27;;;-2.93;82.42
79591;BME280;69070;51.598;-3.776;2023-04-07T04:50:32;102051.41;;;-3.04;83.32
79591;BME280;69070;51.598;-3.776;2023-04-07T04:52:57;102049.18;;;-2.87;82.88
79591;BME280;69070;51.598;-3.776;2023-04-07T04:55:23;102054.94;;;-2.69;83.57
79591;BME280;69070;51.598;-3.776;2023-04-07T04:57:48;102054.53;;;-2.78;84.84
79591;BME280;69070;51.598;-3.776;2023-04-07T05:00:14;102056.08;;;-2.89;84.98
79591;BME280;69070;51.598;-3.776;2023-04-07T05:02:39;102056.82;;;-2.61;84.34
79591;BME280;69070;51.598;-3.776;2023-04-07T05:05:05;102057.78;;;-2.69;84.84
79591;BME280;69070;51.598;-3.776;2023-04-07T05:07:29;102054.66;;;-2.79;85.48
79591;BME280;69070;51.598;-3.776;2023-04-07T05:09:55;102052.98;;;-3.00;86.64
79591;BME280;69070;51.598;-3.776;2023-04-07T05:12:20;102057.77;;;-2.25;84.49
79591;BME280;69070;51.598;-3.776;2023-04-07T05:14:46;102058.82;;;-2.67;84.90
79591;BME280;69070;51.598;-3.776;2023-04-07T05:17:11;102054.22;;;-2.78;83.70
79591;BME280;69070;51.598;-3.776;2023-04-07T05:19:37;102052.86;;;-2.41;84.71
79591;BME280;69070;51.598;-3.776;2023-04-07T05:22:02;102050.05;;;-2.42;84.05
79591;BME280;69070;51.598;-3.776;2023-04-07T05:24:28;102054.50;;;-2.51;83.83
79591;BME280;69070;51.598;-3.776;2023-04-07T05:26:53;102056.29;;;-2.58;84.98
79591;BME280;69070;51.598;-3.776;2023-04-07T05:29:19;102058.18;;;-2.42;84.54
79591;BME280;69070;51.598;-3.776;2023-04-07T05:31:44;102057.69;;;-2.41;83.05
79591;BME280;69070;51.598;-3.776;2023-04-07T05:34:09;102057.62;;;-1.63;81.42
79591;BME280;69070;51.598;-3.776;2023-04-07T05:36:35;102059.29;;;-1.41;77.43
79591;BME280;69070;51.598;-3.776;2023-04-07T05:39:00;102061.64;;;-1.18;77.32
79591;BME280;69070;51.598;-3.776;2023-04-07T05:41:25;102062.98;;;-0.75;74.89
79591;BME280;69070;51.598;-3.776;2023-04-07T05:43:51;102069.40;;;-1.55;78.81
79591;BME280;69070;51.598;-3.776;2023-04-07T05:46:16;102071.31;;;-1.97;77.69
79591;BME280;69070;51.598;-3.776;2023-04-07T05:48:42;102069.59;;;-1.96;79.18
79591;BME280;69070;51.598;-3.776;2023-04-07T05:51:07;102071.13;;;-2.58;81.71
79591;BME280;69070;51.598;-3.776;2023-04-07T05:53:33;102075.29;;;-2.51;82.84
79591;BME280;69070;51.598;-3.776;2023-04-07T05:55:58;102077.05;;;-2.25;82.86
79591;BME280;69070;51.598;-3.776;2023-04-07T05:58:23;102079.73;;;-2.47;83.23
79591;BME280;69070;51.598;-3.776;2023-04-07T06:00:49;102082.19;;;-2.60;84.48
79591;BME280;69070;51.598;-3.776;2023-04-07T06:03:14;102086.60;;;-2.48;85.11
79591;BME280;69070;51.598;-3.776;2023-04-07T06:05:40;102091.08;;;-2.44;84.40
79591;BME280;69070;51.598;-3.776;2023-04-07T06:08:05;102091.43;;;-2.15;85.99
79591;BME280;69070;51.598;-3.776;2023-04-07T06:10:31;102091.27;;;-2.37;84.91
79591;BME280;69070;51.598;-3.776;2023-04-07T06:12:56;102091.19;;;-2.67;84.76
79591;BME280;69070;51.598;-3.776;2023-04-07T06:15:22;102094.96;;;-2.43;86.18
79591;BME280;69070;51.598;-3.776;2023-04-07T06:17:47;102095.83;;;-2.21;85.97
79591;BME280;69070;51.598;-3.776;2023-04-07T06:20:12;102096.92;;;-2.47;86.15
79591;BME280;69070;51.598;-3.776;2023-04-07T06:22:38;102093.30;;;-2.33;84.82
79591;BME280;69070;51.598;-3.776;2023-04-07T06:25:04;102099.10;;;-2.24;82.93
79591;BME280;69070;51.598;-3.776;2023-04-07T06:27:29;102101.10;;;-1.84;84.24
79591;BME280;69070;51.598;-3.776;2023-04-07T06:29:55;102104.26;;;-2.13;84.65
79591;BME280;69070;51.598;-3.776;2023-04-07T06:32:19;102101.34;;;-1.97;84.90
79591;BME280;69070;51.598;-3.776;2023-04-07T06:34:45;102101.64;;;-2.37;84.48
79591;BME280;69070;51.598;-3.776;2023-04-07T06:37:10;102106.48;;;-2.21;84.06
79591;BME280;69070;51.598;-3.776;2023-04-07T06:39:35;102110.69;;;-1.73;82.95
79591;BME280;69070;51.598;-3.776;2023-04-07T06:42:00;102108.83;;;-1.92;81.95
79591;BME280;69070;51.598;-3.776;2023-04-07T06:44:26;102109.96;;;-1.92;82.59
79591;BME280;69070;51.598;-3.776;2023-04-07T06:46:51;102112.71;;;-1.95;83.66
79591;BME280;69070;51.598;-3.776;2023-04-07T06:49:17;102115.23;;;-2.12;82.72
79591;BME280;69070;51.598;-3.776;2023-04-07T06:51:42;102114.41;;;-1.53;82.15
79591;BME280;69070;51.598;-3.776;2023-04-07T06:54:07;102112.35;;;-0.81;79.76
79591;BME280;69070;51.598;-3.776;2023-04-07T06:56:33;102113.64;;;-1.41;79.65
79591;BME280;69070;51.598;-3.776;2023-04-07T06:58:58;102115.13;;;-1.72;81.70
79591;BME280;69070;51.598;-3.776;2023-04-07T07:01:23;102120.60;;;-1.63;81.86
79591;BME280;69070;51.598;-3.776;2023-04-07T07:03:49;102120.65;;;-1.39;81.73
79591;BME280;69070;51.598;-3.776;2023-04-07T07:06:14;102121.69;;;-1.33;82.28
79591;BME280;69070;51.598;-3.776;2023-04-07T07:08:40;102123.71;;;-1.53;81.90
79591;BME280;69070;51.598;-3.776;2023-04-07T07:11:05;102127.57;;;-1.00;80.87
79591;BME280;69070;51.598;-3.776;2023-04-07T07:13:30;102133.71;;;-0.89;79.99
79591;BME280;69070;51.598;-3.776;2023-04-07T07:15:56;102132.86;;;-1.03;80.16
79591;BME280;69070;51.598;-3.776;2023-04-07T07:18:21;102135.21;;;-0.81;80.81
79591;BME280;69070;51.598;-3.776;2023-04-07T07:20:47;102135.05;;;-0.82;81.02
79591;BME280;69070;51.598;-3.776;2023-04-07T07:23:12;102137.14;;;-0.88;81.55
79591;BME280;69070;51.598;-3.776;2023-04-07T07:25:37;102135.74;;;-0.67;81.08
79591;BME280;69070;51.598;-3.776;2023-04-07T07:28:03;102134.32;;;-0.60;79.36
79591;BME280;69070;51.598;-3.776;2023-04-07T07:30:28;102145.32;;;-0.43;78.66
79591;BME280;69070;51.598;-3.776;2023-04-07T07:32:53;102146.99;;;-0.05;78.96
79591;BME280;69070;51.598;-3.776;2023-04-07T07:35:19;102148.94;;;-0.46;79.08
79591;BME280;69070;51.598;-3.776;2023-04-07T07:37:44;102149.41;;;-0.10;79.54
79591;BME280;69070;51.598;-3.776;2023-04-07T07:40:10;102156.70;;;0.15;79.84
79591;BME280;69070;51.598;-3.776;2023-04-07T07:42:35;102158.91;;;0.34;78.46
79591;BME280;69070;51.598;-3.776;2023-04-07T07:45:00;102164.03;;;0.58;76.92
79591;BME280;69070;51.598;-3.776;2023-04-07T07:47:25;102164.74;;;0.89;75.42
79591;BME280;69070;51.598;-3.776;2023-04-07T07:49:51;102163.94;;;0.85;75.71
79591;BME280;69070;51.598;-3.776;2023-04-07T07:52:16;102160.98;;;0.90;75.40
79591;BME280;69070;51.598;-3.776;2023-04-07T07:54:42;102160.56;;;0.70;75.52
79591;BME280;69070;51.598;-3.776;2023-04-07T07:57:07;102160.22;;;1.04;74.38
79591;BME280;69070;51.598;-3.776;2023-04-07T07:59:32;102154.80;;;1.65;72.82
79591;BME280;69070;51.598;-3.776;2023-04-07T08:01:58;102161.23;;;2.00;71.76
79591;BME280;69070;51.598;-3.776;2023-04-07T08:04:23;102163.65;;;1.52;72.90
79591;BME280;69070;51.598;-3.776;2023-04-07T08:06:48;102162.20;;;1.67;71.40
79591;BME280;69070;51.598;-3.776;2023-04-07T08:09:14;102160.09;;;1.92;70.82
79591;BME280;69070;51.598;-3.776;2023-04-07T08:11:39;102163.15;;;2.12;68.69
79591;BME280;69070;51.598;-3.776;2023-04-07T08:14:04;102169.03;;;2.66;67.16
79591;BME280;69070;51.598;-3.776;2023-04-07T08:16:29;102165.99;;;3.75;63.65
79591;BME280;69070;51.598;-3.776;2023-04-07T08:18:55;102160.79;;;3.06;65.43
79591;BME280;69070;51.598;-3.776;2023-04-07T08:21:20;102161.30;;;3.75;64.41
79591;BME280;69070;51.598;-3.776;2023-04-07T08:23:45;102164.29;;;3.08;65.39
79591;BME280;69070;51.598;-3.776;2023-04-07T08:26:11;102164.33;;;3.47;64.95
79591;BME280;69070;51.598;-3.776;2023-04-07T08:28:36;102166.11;;;3.18;65.59
79591;BME280;69070;51.598;-3.776;2023-04-07T08:31:01;102161.87;;;2.64;68.85
79591;BME280;69070;51.598;-3.776;2023-04-07T08:33:26;102166.84;;;2.63;70.80
79591;BME280;69070;51.598;-3.776;2023-04-07T08:35:52;102166.49;;;2.28;73.09
79591;BME280;69070;51.598;-3.776;2023-04-07T08:38:17;102168.57;;;2.47;71.59
79591;BME280;69070;51.598;-3.776;2023-04-07T08:40:43;102167.07;;;3.19;68.87
79591;BME280;69070;51.598;-3.776;2023-04-07T08:43:08;102164.05;;;3.86;66.94
79591;BME280;69070;51.598;-3.776;2023-04-07T08:45:35;102165.25;;;4.04;65.50
79591;BME280;69070;51.598;-3.776;2023-04-07T08:47:58;102162.11;;;3.97;65.66
79591;BME280;69070;51.598;-3.776;2023-04-07T08:50:25;102158.31;;;4.39;63.17
79591;BME280;69070;51.598;-3.776;2023-04-07T08:52:50;102156.50;;;4.46;63.94
79591;BME280;69070;51.598;-3.776;2023-04-07T08:55:15;102154.51;;;5.61;60.50
79591;BME280;69070;51.598;-3.776;2023-04-07T08:57:40;102153.70;;;5.50;60.69
79591;BME280;69070;51.598;-3.776;2023-04-07T09:00:08;102153.08;;;5.45;59.84
79591;BME280;69070;51.598;-3.776;2023-04-07T09:02:33;102152.11;;;5.07;60.83
79591;BME280;69070;51.598;-3.776;2023-04-07T09:04:57;102152.35;;;5.53;60.75
79591;BME280;69070;51.598;-3.776;2023-04-07T09:07:23;102151.47;;;4.97;60.98
79591;BME280;69070;51.598;-3.776;2023-04-07T09:09:48;102155.05;;;5.16;61.16
79591;BME280;69070;51.598;-3.776;2023-04-07T09:12:13;102149.86;;;5.26;60.73
79591;BME280;69070;51.598;-3.776;2023-04-07T09:14:39;102148.83;;;5.65;60.35
79591;BME280;69070;51.598;-3.776;2023-04-07T09:17:05;102153.67;;;5.24;62.35
79591;BME280;69070;51.598;-3.776;2023-04-07T09:19:32;102147.37;;;5.13;62.23
79591;BME280;69070;51.598;-3.776;2023-04-07T09:21:56;102148.18;;;4.94;61.31
79591;BME280;69070;51.598;-3.776;2023-04-07T09:24:22;102144.68;;;5.20;60.96
79591;BME280;69070;51.598;-3.776;2023-04-07T09:26:47;102148.16;;;4.95;60.81
79591;BME280;69070;51.598;-3.776;2023-04-07T09:29:18;102150.96;;;5.15;60.90
79591;BME280;69070;51.598;-3.776;2023-04-07T09:31:44;102151.91;;;5.26;61.66
79591;BME280;69070;51.598;-3.776;2023-04-07T09:34:04;102150.19;;;5.24;61.35
79591;BME280;69070;51.598;-3.776;2023-04-07T09:36:34;102144.66;;;5.51;60.28
79591;BME280;69070;51.598;-3.776;2023-04-07T09:38:54;102142.88;;;5.98;58.96
79591;BME280;69070;51.598;-3.776;2023-04-07T09:41:20;102142.71;;;5.80;56.56
79591;BME280;69070;51.598;-3.776;2023-04-07T09:43:45;102140.22;;;5.91;57.67
79591;BME280;69070;51.598;-3.776;2023-04-07T09:46:12;102138.80;;;5.96;58.40
79591;BME280;69070;51.598;-3.776;2023-04-07T09:48:36;102135.75;;;5.61;59.11
79591;BME280;69070;51.598;-3.776;2023-04-07T09:51:05;102132.29;;;5.99;58.40
79591;BME280;69070;51.598;-3.776;2023-04-07T09:53:42;102131.18;;;5.68;58.63
79591;BME280;69070;51.598;-3.776;2023-04-07T09:55:52;102131.85;;;6.43;56.20
79591;BME280;69070;51.598;-3.776;2023-04-07T09:58:18;102130.83;;;5.61;57.30
79591;BME280;69070;51.598;-3.776;2023-04-07T10:00:43;102127.54;;;5.86;56.65
79591;BME280;69070;51.598;-3.776;2023-04-07T10:03:09;102124.19;;;5.92;56.97
79591;BME280;69070;51.598;-3.776;2023-04-07T10:05:34;102120.23;;;6.33;55.65
79591;BME280;69070;51.598;-3.776;2023-04-07T10:08:00;102122.19;;;5.77;55.14
79591;BME280;69070;51.598;-3.776;2023-04-07T10:10:25;102125.42;;;6.27;55.56
79591;BME280;69070;51.598;-3.776;2023-04-07T10:12:52;102120.54;;;6.36;52.59
79591;BME280;69070;51.598;-3.776;2023-04-07T10:15:16;102119.04;;;6.25;55.72
79591;BME280;69070;51.598;-3.776;2023-04-07T10:17:45;102117.69;;;6.01;58.00
79591;BME280;69070;51.598;-3.776;2023-04-07T10:20:09;102114.43;;;6.18;55.61
79591;BME280;69070;51.598;-3.776;2023-04-07T10:22:33;102113.08;;;6.03;57.11
79591;BME280;69070;51.598;-3.776;2023-04-07T10:25:01;102110.48;;;5.74;56.33
79591;BME280;69070;51.598;-3.776;2023-04-07T10:27:30;102109.24;;;5.86;55.54
79591;BME280;69070;51.598;-3.776;2023-04-07T10:29:49;102107.15;;;6.29;54.31
79591;BME280;69070;51.598;-3.776;2023-04-07T10:32:14;102105.19;;;5.83;54.50
79591;BME280;69070;51.598;-3.776;2023-04-07T10:34:54;102105.68;;;5.70;55.48
79591;BME280;69070;51.598;-3.776;2023-04-07T10:37:10;102105.15;;;5.92;54.77
79591;BME280;69070;51.598;-3.776;2023-04-07T10:39:28;102098.66;;;6.07;55.25
79591;BME280;69070;51.598;-3.776;2023-04-07T10:41:54;102103.47;;;6.52;54.01
79591;BME280;69070;51.598;-3.776;2023-04-07T10:49:10;102096.71;;;6.08;56.60
79591;BME280;69070;51.598;-3.776;2023-04-07T10:51:34;102096.34;;;6.02;55.57
79591;BME280;69070;51.598;-3.776;2023-04-07T10:56:24;102094.78;;;6.58;54.55
79591;BME280;69070;51.598;-3.776;2023-04-07T11:01:17;102094.07;;;7.07;51.99
79591;BME280;69070;51.598;-3.776;2023-04-07T11:03:41;102091.00;;;6.81;50.79
79591;BME280;69070;51.598;-3.776;2023-04-07T11:06:07;102090.10;;;7.03;51.67
79591;BME280;69070;51.598;-3.776;2023-04-07T11:08:32;102089.22;;;7.01;52.69
79591;BME280;69070;51.598;-3.776;2023-04-07T11:15:59;102098.30;;;6.67;52.28
79591;BME280;69070;51.598;-3.776;2023-04-07T11:18:23;102102.25;;;7.12;54.44
79591;BME280;69070;51.598;-3.776;2023-04-07T11:20:51;102108.95;;;7.02;54.55
79591;BME280;69070;51.598;-3.776;2023-04-07T11:23:15;102105.94;;;6.61;53.71
79591;BME280;69070;51.598;-3.776;2023-04-07T11:25:41;102103.96;;;6.66;50.80
79591;BME280;69070;51.598;-3.776;2023-04-07T11:28:04;102100.81;;;7.30;48.67
79591;BME280;69070;51.598;-3.776;2023-04-07T11:30:29;102102.58;;;7.08;51.18
79591;BME280;69070;51.598;-3.776;2023-04-07T11:32:55;102103.35;;;7.33;50.52
79591;BME280;69070;51.598;-3.776;2023-04-07T11:35:19;102104.02;;;7.11;51.12
79591;BME280;69070;51.598;-3.776;2023-04-07T11:37:44;102100.29;;;6.69;51.39
79591;BME280;69070;51.598;-3.776;2023-04-07T11:40:10;102108.42;;;7.25;51.32
79591;BME280;69070;51.598;-3.776;2023-04-07T11:42:36;102106.16;;;7.12;51.15
79591;BME280;69070;51.598;-3.776;2023-04-07T11:44:59;102107.76;;;6.64;51.52
79591;BME280;69070;51.598;-3.776;2023-04-07T11:47:33;102105.90;;;7.14;51.95
79591;BME280;69070;51.598;-3.776;2023-04-07T11:49:50;102105.15;;;7.93;50.82
79591;BME280;69070;51.598;-3.776;2023-04-07T11:52:15;102105.31;;;7.74;50.75
79591;BME280;69070;51.598;-3.776;2023-04-07T11:54:40;102105.99;;;7.28;52.36
79591;BME280;69070;51.598;-3.776;2023-04-07T11:57:05;102103.71;;;7.15;53.06
79591;BME280;69070;51.598;-3.776;2023-04-07T11:59:30;102100.98;;;6.97;52.09
79591;BME280;69070;51.598;-3.776;2023-04-07T12:01:55;102100.56;;;7.94;51.88
79591;BME280;69070;51.598;-3.776;2023-04-07T12:04:20;102102.52;;;8.39;51.49
79591;BME280;69070;51.598;-3.776;2023-04-07T12:06:47;102100.07;;;7.88;49.14
79591;BME280;69070;51.598;-3.776;2023-04-07T12:09:25;102098.75;;;8.58;50.32
79591;BME280;69070;51.598;-3.776;2023-04-07T12:11:36;102098.40;;;7.83;50.87
79591;BME280;69070;51.598;-3.776;2023-04-07T12:14:01;102092.02;;;7.51;51.77
79591;BME280;69070;51.598;-3.776;2023-04-07T12:16:26;102096.91;;;8.40;52.56
79591;BME280;69070;51.598;-3.776;2023-04-07T12:18:51;102096.80;;;8.56;49.73
79591;BME280;69070;51.598;-3.776;2023-04-07T12:21:16;102098.50;;;7.80;51.27
79591;BME280;69070;51.598;-3.776;2023-04-07T12:23:41;102101.18;;;8.33;50.08
79591;BME280;69070;51.598;-3.776;2023-04-07T12:26:06;102099.22;;;7.43;48.93
79591;BME280;69070;51.598;-3.776;2023-04-07T12:28:31;102101.65;;;8.29;51.44
79591;BME280;69070;51.598;-3.776;2023-04-07T12:30:56;102101.36;;;8.42;52.40
79591;BME280;69070;51.598;-3.776;2023-04-07T12:33:22;102102.26;;;8.45;52.03
79591;BME280;69070;51.598;-3.776;2023-04-07T12:35:46;102102.73;;;7.88;54.52
79591;BME280;69070;51.598;-3.776;2023-04-07T12:38:11;102099.93;;;8.43;52.43
79591;BME280;69070;51.598;-3.776;2023-04-07T12:40:36;102099.12;;;8.06;52.99
79591;BME280;69070;51.598;-3.776;2023-04-07T12:46:01;102097.38;;;8.37;51.64
79591;BME280;69070;51.598;-3.776;2023-04-07T12:48:26;102095.15;;;8.71;52.99
79591;BME280;69070;51.598;-3.776;2023-04-07T12:50:51;102096.90;;;8.45;51.10
79591;BME280;69070;51.598;-3.776;2023-04-07T12:53:16;102092.76;;;8.64;52.57